createdAt,value
2022-12-25T00:01:12.480Z,6.40
2022-12-25T00:03:41.467Z,6.30
2022-12-25T00:06:10.188Z,6.40
2022-12-25T00:08:40.044Z,6.40
2022-12-25T00:11:10.313Z,6.30
2022-12-25T00:13:40.731Z,6.30
2022-12-25T00:16:11.245Z,6.30
2022-12-25T00:18:40.024Z,6.30
2022-12-25T00:21:09.084Z,6.30
2022-12-25T00:23:37.925Z,6.30
2022-12-25T00:26:08.096Z,6.30
2022-12-25T00:28:37.117Z,6.30
2022-12-25T00:31:08.532Z,6.40
2022-12-25T00:33:37.795Z,6.40
2022-12-25T00:36:08.025Z,6.50
2022-12-25T00:38:38.552Z,6.50
2022-12-25T00:41:10.347Z,6.50
2022-12-25T00:43:39.642Z,6.60
2022-12-25T00:46:11.141Z,6.60
2022-12-25T00:48:40.058Z,6.70
2022-12-25T00:51:12.757Z,6.80
2022-12-25T00:53:41.505Z,6.80
2022-12-25T00:56:11.438Z,6.90
2022-12-25T00:58:40.100Z,7.00
2022-12-25T01:01:12.386Z,7.00
2022-12-25T01:03:41.161Z,7.10
2022-12-25T01:06:12.840Z,7.10
2022-12-25T01:09:03.579Z,7.20
2022-12-25T01:11:32.135Z,7.30
2022-12-25T01:14:00.837Z,7.40
2022-12-25T01:16:31.308Z,7.50
2022-12-25T01:19:00.308Z,7.70
2022-12-25T01:21:29.376Z,7.70
2022-12-25T01:23:58.210Z,7.80
2022-12-25T01:26:28.288Z,7.90
2022-12-25T01:28:57.047Z,7.90
2022-12-25T01:31:26.395Z,8.00
2022-12-25T01:33:56.434Z,8.00
2022-12-25T01:36:26.888Z,8.00
2022-12-25T01:38:55.948Z,8.10
2022-12-25T01:41:27.484Z,8.10
2022-12-25T01:44:06.884Z,8.10
2022-12-25T01:46:36.573Z,8.10
2022-12-25T01:49:10.768Z,8.10
2022-12-25T01:51:42.826Z,8.20
2022-12-25T01:54:16.501Z,8.20
2022-12-25T01:56:47.067Z,8.30
2022-12-25T01:59:19.609Z,8.30
2022-12-25T02:01:48.982Z,8.30
2022-12-25T02:04:38.732Z,8.30
2022-12-25T02:07:09.584Z,8.30
2022-12-25T02:09:39.016Z,8.30
2022-12-25T02:12:08.842Z,8.30
2022-12-25T02:14:38.922Z,8.30
2022-12-25T02:17:13.892Z,8.30
2022-12-25T02:20:17.892Z,8.40
2022-12-25T02:22:57.733Z,8.40
2022-12-25T02:25:43.914Z,8.40
2022-12-25T02:28:20.982Z,8.40
2022-12-25T02:30:56.417Z,8.40
2022-12-25T02:33:48.165Z,8.40
2022-12-25T02:36:22.115Z,8.30
2022-12-25T02:39:13.936Z,8.10
2022-12-25T02:41:47.002Z,8.10
2022-12-25T02:44:48.579Z,8.00
2022-12-25T02:47:36.241Z,8.00
2022-12-25T02:50:35.365Z,8.00
2022-12-25T02:53:23.337Z,8.00
2022-12-25T02:56:11.495Z,8.00
2022-12-25T02:59:00.845Z,8.00
2022-12-25T03:01:51.448Z,7.90
2022-12-25T03:04:43.129Z,7.90
2022-12-25T03:07:14.706Z,7.90
2022-12-25T03:10:09.310Z,8.00
2022-12-25T03:12:43.641Z,8.00
2022-12-25T03:15:43.024Z,8.10
2022-12-25T03:18:18.237Z,8.10
2022-12-25T03:21:15.852Z,8.20
2022-12-25T03:24:18.509Z,8.20
2022-12-25T03:26:56.475Z,8.10
2022-12-25T03:29:43.514Z,8.20
2022-12-25T03:32:23.421Z,8.30
2022-12-25T03:35:21.787Z,8.30
2022-12-25T03:38:27.443Z,8.30
2022-12-25T03:41:24.352Z,8.30
2022-12-25T03:44:30.455Z,8.30
2022-12-25T03:47:25.778Z,8.40
2022-12-25T03:50:22.144Z,8.50
2022-12-25T03:53:13.115Z,8.50
2022-12-25T03:56:15.103Z,8.50
2022-12-25T03:59:10.795Z,8.60
2022-12-25T04:01:57.025Z,8.50
2022-12-25T04:04:43.216Z,8.40
2022-12-25T04:07:30.900Z,8.40
2022-12-25T04:10:31.826Z,8.40
2022-12-25T04:13:18.192Z,8.40
2022-12-25T04:16:04.694Z,8.50
2022-12-25T04:18:50.823Z,8.50
2022-12-25T04:21:36.849Z,8.60
2022-12-25T04:24:25.557Z,8.50
2022-12-25T04:27:11.590Z,8.50
2022-12-25T04:29:57.545Z,8.50
2022-12-25T04:32:43.743Z,8.60
2022-12-25T04:35:30.136Z,8.50
2022-12-25T04:37:58.851Z,8.60
2022-12-25T04:40:29.162Z,8.60
2022-12-25T04:42:57.799Z,8.60
2022-12-25T04:45:26.436Z,8.60
2022-12-25T04:47:55.034Z,8.60
2022-12-25T04:50:23.632Z,8.60
2022-12-25T04:52:52.353Z,8.60
2022-12-25T04:55:21.050Z,8.60
2022-12-25T04:57:51.097Z,8.60
2022-12-25T05:00:20.333Z,8.60
2022-12-25T05:02:49.166Z,8.60
2022-12-25T05:05:18.187Z,8.60
2022-12-25T05:07:46.960Z,8.50
2022-12-25T05:10:16.820Z,8.50
2022-12-25T05:12:45.638Z,8.50
2022-12-25T05:15:15.683Z,8.40
2022-12-25T05:17:44.305Z,8.50
2022-12-25T05:20:13.189Z,8.50
2022-12-25T05:22:43.349Z,8.40
2022-12-25T05:25:12.078Z,8.30
2022-12-25T05:27:40.780Z,8.30
2022-12-25T05:30:10.578Z,8.20
2022-12-25T05:32:40.500Z,8.20
2022-12-25T05:35:10.054Z,8.20
2022-12-25T05:37:38.934Z,8.20
2022-12-25T05:40:08.708Z,8.10
2022-12-25T05:42:37.338Z,8.10
2022-12-25T05:45:06.996Z,8.10
2022-12-25T05:47:35.682Z,8.00
2022-12-25T05:50:06.972Z,8.00
2022-12-25T05:52:36.415Z,8.00
2022-12-25T05:55:08.810Z,7.90
2022-12-25T05:57:37.535Z,7.90
2022-12-25T06:00:10.536Z,7.90
2022-12-25T06:02:39.421Z,7.90
2022-12-25T06:05:10.849Z,8.00
2022-12-25T06:07:39.431Z,8.00
2022-12-25T06:10:09.997Z,8.00
2022-12-25T06:12:39.284Z,8.00
2022-12-25T06:15:09.381Z,7.90
2022-12-25T06:17:39.971Z,7.90
2022-12-25T06:20:10.936Z,7.90
2022-12-25T06:22:43.166Z,7.80
2022-12-25T06:25:14.484Z,7.80
2022-12-25T06:27:43.611Z,7.80
2022-12-25T06:30:12.748Z,7.70
2022-12-25T06:32:41.429Z,7.60
2022-12-25T06:35:11.532Z,7.60
2022-12-25T06:37:40.193Z,7.60
2022-12-25T06:40:09.984Z,7.60
2022-12-25T06:42:38.535Z,7.60
2022-12-25T06:45:07.984Z,7.50
2022-12-25T06:47:40.157Z,7.50
2022-12-25T06:50:09.481Z,7.40
2022-12-25T06:52:39.620Z,7.40
2022-12-25T06:55:08.987Z,7.30
2022-12-25T06:57:37.915Z,7.30
2022-12-25T07:00:11.317Z,7.30
2022-12-25T07:02:41.172Z,7.30
2022-12-25T07:05:10.300Z,7.30
2022-12-25T07:07:40.446Z,7.40
2022-12-25T07:10:10.160Z,7.40
2022-12-25T07:12:38.942Z,7.40
2022-12-25T07:15:08.894Z,7.50
2022-12-25T07:17:37.597Z,7.60
2022-12-25T07:20:07.539Z,7.60
2022-12-25T07:22:36.196Z,7.60
2022-12-25T07:25:06.963Z,7.60
2022-12-25T07:27:35.561Z,7.60
2022-12-25T07:30:04.415Z,7.70
2022-12-25T07:32:33.291Z,7.70
2022-12-25T07:35:01.974Z,7.70
2022-12-25T07:37:30.598Z,7.80
2022-12-25T07:39:59.347Z,7.80
2022-12-25T07:42:29.418Z,7.80
2022-12-25T07:44:58.025Z,7.80
2022-12-25T07:47:26.743Z,7.80
2022-12-25T07:49:55.477Z,7.80
2022-12-25T07:52:24.517Z,7.80
2022-12-25T07:54:53.151Z,7.80
2022-12-25T07:57:21.832Z,7.80
2022-12-25T07:59:51.869Z,7.80
2022-12-25T08:02:26.944Z,7.70
2022-12-25T08:04:55.880Z,7.80
2022-12-25T08:07:24.724Z,7.80
2022-12-25T08:09:53.620Z,7.70
2022-12-25T08:12:22.269Z,7.70
2022-12-25T08:14:52.313Z,7.80
2022-12-25T08:17:21.014Z,7.80
2022-12-25T08:19:49.717Z,7.80
2022-12-25T08:22:18.402Z,7.80
2022-12-25T08:24:47.048Z,7.80
2022-12-25T08:27:15.718Z,7.80
2022-12-25T08:29:45.229Z,7.80
2022-12-25T08:32:15.428Z,7.90
2022-12-25T08:34:44.027Z,7.90
2022-12-25T08:37:12.613Z,7.90
2022-12-25T08:39:41.217Z,8.00
2022-12-25T08:42:09.867Z,8.00
2022-12-25T08:44:38.479Z,8.00
2022-12-25T08:47:07.137Z,8.00
2022-12-25T08:49:37.142Z,8.00
2022-12-25T08:52:06.097Z,8.00
2022-12-25T08:54:36.475Z,8.00
2022-12-25T08:57:05.204Z,8.00
2022-12-25T08:59:33.901Z,8.00
2022-12-25T09:02:02.645Z,8.00
2022-12-25T09:04:31.383Z,8.00
2022-12-25T09:07:02.718Z,8.10
2022-12-25T09:09:31.661Z,8.10
2022-12-25T09:12:00.284Z,8.10
2022-12-25T09:14:29.129Z,8.20
2022-12-25T09:16:57.816Z,8.20
2022-12-25T09:19:26.661Z,8.10
2022-12-25T09:21:55.551Z,8.20
2022-12-25T09:24:25.956Z,8.20
2022-12-25T09:26:55.768Z,8.20
2022-12-25T09:29:24.635Z,8.20
2022-12-25T09:31:53.279Z,8.20
2022-12-25T09:34:21.865Z,8.20
2022-12-25T09:36:50.634Z,8.20
2022-12-25T09:39:19.262Z,8.30
2022-12-25T09:41:57.429Z,8.30
2022-12-25T09:44:29.847Z,8.30
2022-12-25T09:47:01.980Z,8.30
2022-12-25T09:49:38.358Z,8.30
2022-12-25T09:52:12.518Z,8.30
2022-12-25T09:54:48.134Z,8.30
2022-12-25T09:57:18.260Z,8.40
2022-12-25T09:59:47.687Z,8.40
2022-12-25T10:02:40.620Z,8.40
2022-12-25T10:05:30.363Z,8.40
2022-12-25T10:08:06.994Z,8.40
2022-12-25T10:10:51.971Z,8.40
2022-12-25T10:13:39.643Z,8.40
2022-12-25T10:16:19.320Z,8.50
2022-12-25T10:18:58.865Z,8.50
2022-12-25T10:21:28.786Z,8.50
2022-12-25T10:24:07.825Z,8.50
2022-12-25T10:26:36.581Z,8.50
2022-12-25T10:29:13.218Z,8.50
2022-12-25T10:31:43.048Z,8.50
2022-12-25T10:34:14.767Z,8.50
2022-12-25T10:36:45.852Z,8.50
2022-12-25T10:39:18.392Z,8.50
2022-12-25T10:42:10.503Z,8.50
2022-12-25T10:44:40.562Z,8.50
2022-12-25T10:47:09.429Z,8.50
2022-12-25T10:49:39.945Z,8.50
2022-12-25T10:52:21.513Z,8.50
2022-12-25T10:54:50.105Z,8.50
2022-12-25T10:57:21.654Z,8.50
2022-12-25T10:59:55.895Z,8.50
2022-12-25T11:02:28.228Z,8.50
2022-12-25T11:05:02.855Z,8.60
2022-12-25T11:07:32.439Z,8.60
2022-12-25T11:10:05.554Z,8.60
2022-12-25T11:12:37.998Z,8.60
2022-12-25T11:15:38.718Z,8.60
2022-12-25T11:18:21.487Z,8.60
2022-12-25T11:20:51.924Z,8.60
2022-12-25T11:23:22.354Z,8.60
2022-12-25T11:25:58.612Z,8.60
2022-12-25T11:28:28.421Z,8.60
2022-12-25T11:31:02.618Z,8.60
2022-12-25T11:33:36.616Z,8.50
2022-12-25T11:36:10.536Z,8.50
2022-12-25T11:38:39.119Z,8.60
2022-12-25T11:41:10.533Z,8.60
2022-12-25T11:43:46.714Z,8.60
2022-12-25T11:46:22.830Z,8.60
2022-12-25T11:48:56.357Z,8.60
2022-12-25T11:51:28.377Z,8.60
2022-12-25T11:54:01.025Z,8.60
2022-12-25T11:56:32.030Z,8.60
2022-12-25T11:59:04.859Z,8.60
2022-12-25T12:01:38.283Z,8.60
2022-12-25T12:04:15.662Z,8.60
2022-12-25T12:06:49.637Z,8.60
2022-12-25T12:09:30.729Z,8.70
2022-12-25T12:12:06.401Z,8.70
2022-12-25T12:14:49.038Z,8.70
2022-12-25T12:17:20.144Z,8.70
2022-12-25T12:19:48.890Z,8.70
2022-12-25T12:22:21.890Z,8.80
2022-12-25T12:24:56.189Z,8.80
2022-12-25T12:27:28.735Z,8.80
2022-12-25T12:29:59.147Z,8.80
2022-12-25T12:32:37.802Z,8.80
2022-12-25T12:35:11.365Z,8.90
2022-12-25T12:37:41.832Z,9.00
2022-12-25T12:40:25.995Z,9.00
2022-12-25T12:42:55.430Z,9.00
2022-12-25T12:45:28.934Z,9.00
2022-12-25T12:47:59.396Z,9.00
2022-12-25T12:50:37.447Z,9.00
2022-12-25T12:53:30.669Z,9.00
2022-12-25T12:56:10.852Z,9.00
2022-12-25T12:58:45.249Z,9.00
2022-12-25T13:01:20.657Z,9.00
2022-12-25T13:04:21.378Z,9.00
2022-12-25T13:06:57.265Z,9.00
2022-12-25T13:09:37.677Z,9.00
2022-12-25T13:12:08.278Z,9.00
2022-12-25T13:14:38.038Z,8.90
2022-12-25T13:17:08.830Z,8.90
2022-12-25T13:19:43.625Z,8.90
2022-12-25T13:22:25.592Z,8.90
2022-12-25T13:24:58.650Z,8.90
2022-12-25T13:27:29.292Z,8.90
2022-12-25T13:29:58.688Z,8.90
2022-12-25T13:32:30.692Z,9.00
2022-12-25T13:35:01.477Z,9.00
2022-12-25T13:37:32.354Z,9.00
2022-12-25T13:40:04.632Z,9.00
2022-12-25T13:42:36.257Z,9.00
2022-12-25T13:45:07.239Z,9.00
2022-12-25T13:47:37.864Z,9.00
2022-12-25T13:50:22.091Z,8.90
2022-12-25T13:52:51.631Z,9.00
2022-12-25T13:55:22.846Z,9.00
2022-12-25T13:57:54.864Z,9.00
2022-12-25T14:00:28.131Z,9.00
2022-12-25T14:02:57.250Z,9.00
2022-12-25T14:05:37.685Z,9.00
2022-12-25T14:08:17.099Z,9.00
2022-12-25T14:10:50.382Z,9.00
2022-12-25T14:13:21.084Z,9.00
2022-12-25T14:15:51.251Z,9.00
2022-12-25T14:18:21.640Z,9.00
2022-12-25T14:21:00.712Z,9.00
2022-12-25T14:23:41.329Z,9.00
2022-12-25T14:26:16.842Z,9.00
2022-12-25T14:28:49.372Z,9.00
2022-12-25T14:31:18.473Z,9.00
2022-12-25T14:33:47.537Z,9.00
2022-12-25T14:36:17.712Z,9.00
2022-12-25T14:38:56.273Z,9.00
2022-12-25T14:41:34.327Z,9.00
2022-12-25T14:44:04.707Z,9.00
2022-12-25T14:46:34.947Z,8.90
2022-12-25T14:49:07.221Z,8.90
2022-12-25T14:51:40.134Z,8.90
2022-12-25T14:54:20.352Z,8.90
2022-12-25T14:56:51.071Z,8.90
2022-12-25T14:59:21.638Z,8.90
2022-12-25T15:01:54.830Z,8.90
2022-12-25T15:04:24.789Z,8.90
2022-12-25T15:06:57.743Z,8.90
2022-12-25T15:09:27.138Z,8.90
2022-12-25T15:11:57.172Z,8.90
2022-12-25T15:14:26.931Z,8.90
2022-12-25T15:17:01.666Z,8.90
2022-12-25T15:19:37.726Z,8.80
2022-12-25T15:22:11.390Z,8.80
2022-12-25T15:24:40.007Z,8.80
2022-12-25T15:27:16.673Z,8.80
2022-12-25T15:30:08.999Z,8.80
2022-12-25T15:32:34.076Z,8.80
2022-12-25T15:35:02.766Z,8.80
2022-12-25T15:37:32.948Z,8.80
2022-12-25T15:40:02.361Z,8.80
2022-12-25T15:42:31.161Z,8.80
2022-12-25T15:44:59.834Z,8.80
2022-12-25T15:47:28.467Z,8.80
2022-12-25T15:49:57.395Z,8.80
2022-12-25T15:52:28.517Z,8.70
2022-12-25T15:54:58.501Z,8.80
2022-12-25T15:57:27.550Z,8.80
2022-12-25T15:59:58.962Z,8.70
2022-12-25T16:02:28.368Z,8.80
2022-12-25T16:04:57.159Z,8.80
2022-12-25T16:07:27.780Z,8.80
2022-12-25T16:10:00.964Z,8.70
2022-12-25T16:12:29.712Z,8.70
2022-12-25T16:14:58.277Z,8.70
2022-12-25T16:17:27.073Z,8.70
2022-12-25T16:19:58.437Z,8.70
2022-12-25T16:22:27.387Z,8.70
2022-12-25T16:24:56.445Z,8.70
2022-12-25T16:27:26.903Z,8.70
2022-12-25T16:29:56.087Z,8.70
2022-12-25T16:32:27.120Z,8.60
2022-12-25T16:34:55.972Z,8.70
2022-12-25T16:37:24.720Z,8.70
2022-12-25T16:39:53.489Z,8.70
2022-12-25T16:42:22.216Z,8.70
2022-12-25T16:44:52.299Z,8.70
2022-12-25T16:47:21.218Z,8.60
2022-12-25T16:49:49.812Z,8.60
2022-12-25T16:52:18.538Z,8.60
2022-12-25T16:54:47.362Z,8.60
2022-12-25T16:57:16.166Z,8.50
2022-12-25T16:59:44.823Z,8.50
2022-12-25T17:02:18.479Z,8.50
2022-12-25T17:04:48.128Z,8.50
2022-12-25T17:07:18.084Z,8.40
2022-12-25T17:09:49.004Z,8.40
2022-12-25T17:12:18.273Z,8.30
2022-12-25T17:14:46.956Z,8.30
2022-12-25T17:17:17.107Z,8.30
2022-12-25T17:19:45.900Z,8.30
2022-12-25T17:22:14.586Z,8.40
2022-12-25T17:24:43.239Z,8.40
2022-12-25T17:27:11.850Z,8.50
2022-12-25T17:29:41.092Z,8.40
2022-12-25T17:32:10.646Z,8.40
2022-12-25T17:34:40.696Z,8.40
2022-12-25T17:37:09.731Z,8.40
2022-12-25T17:39:39.599Z,8.30
2022-12-25T17:42:08.191Z,8.20
2022-12-25T17:44:36.835Z,8.20
2022-12-25T17:47:05.726Z,8.20
2022-12-25T17:49:34.434Z,8.20
2022-12-25T17:52:04.439Z,8.20
2022-12-25T17:54:33.147Z,8.20
2022-12-25T17:57:01.832Z,8.20
2022-12-25T17:59:30.432Z,8.20
2022-12-25T18:01:59.270Z,8.20
2022-12-25T18:04:28.186Z,8.20
2022-12-25T18:06:57.109Z,8.20
2022-12-25T18:09:27.332Z,8.30
2022-12-25T18:11:59.169Z,8.20
2022-12-25T18:14:27.898Z,8.30
2022-12-25T18:16:57.321Z,8.20
2022-12-25T18:19:26.130Z,8.20
2022-12-25T18:21:54.860Z,8.20
2022-12-25T18:24:25.475Z,8.20
2022-12-25T18:26:58.507Z,8.20
2022-12-25T18:29:27.196Z,8.20
2022-12-25T18:31:56.083Z,8.20
2022-12-25T18:34:24.788Z,8.10
2022-12-25T18:36:53.647Z,8.20
2022-12-25T18:39:22.252Z,8.20
2022-12-25T18:42:08.256Z,8.20
2022-12-25T18:44:38.387Z,8.20
2022-12-25T18:47:07.163Z,8.20
2022-12-25T18:49:36.053Z,8.30
2022-12-25T18:52:50.372Z,8.30
2022-12-25T18:54:56.646Z,8.20
2022-12-25T18:57:26.135Z,8.20
2022-12-25T18:59:56.294Z,8.20
2022-12-25T19:02:25.166Z,8.20
2022-12-25T19:04:54.146Z,8.20
2022-12-25T19:07:23.855Z,8.30
2022-12-25T19:09:52.649Z,8.30
2022-12-25T19:12:21.420Z,8.20
2022-12-25T19:14:50.549Z,8.20
2022-12-25T19:17:20.627Z,8.30
2022-12-25T19:19:50.527Z,8.20
2022-12-25T19:22:19.189Z,8.30
2022-12-25T19:24:47.852Z,8.20
2022-12-25T19:27:16.483Z,8.20
2022-12-25T19:29:45.202Z,8.20
2022-12-25T19:32:13.856Z,8.20
2022-12-25T19:34:43.794Z,8.20
2022-12-25T19:37:12.541Z,8.20
2022-12-25T19:39:46.102Z,8.20
2022-12-25T19:42:14.989Z,8.20
2022-12-25T19:44:44.246Z,8.20
2022-12-25T19:47:13.140Z,8.20
2022-12-25T19:49:43.997Z,8.20
2022-12-25T19:52:14.574Z,8.30
2022-12-25T19:54:43.224Z,8.30
2022-12-25T19:57:11.845Z,8.30
2022-12-25T19:59:40.547Z,8.30
2022-12-25T20:02:10.284Z,8.30
2022-12-25T20:04:39.101Z,8.30
2022-12-25T20:07:09.126Z,8.30
2022-12-25T20:09:37.754Z,8.30
2022-12-25T20:12:08.555Z,8.30
2022-12-25T20:14:37.388Z,8.30
2022-12-25T20:17:09.457Z,8.30
2022-12-25T20:19:42.389Z,8.30
2022-12-25T20:22:12.482Z,8.30
2022-12-25T20:24:41.121Z,8.20
2022-12-25T20:27:09.999Z,8.30
2022-12-25T20:29:38.800Z,8.30
2022-12-25T20:32:07.642Z,8.30
2022-12-25T20:34:36.379Z,8.30
2022-12-25T20:37:05.143Z,8.20
2022-12-25T20:39:35.317Z,8.20
2022-12-25T20:42:03.948Z,8.20
2022-12-25T20:44:32.544Z,8.20
2022-12-25T20:47:02.062Z,8.20
2022-12-25T20:49:32.717Z,8.20
2022-12-25T20:52:05.339Z,8.20
2022-12-25T20:54:36.095Z,8.10
2022-12-25T20:58:01.136Z,8.20
2022-12-25T21:00:29.851Z,8.10
2022-12-25T21:02:58.661Z,8.20
2022-12-25T21:05:27.428Z,8.20
2022-12-25T21:07:56.285Z,8.20
2022-12-25T21:10:26.749Z,8.20
2022-12-25T21:12:55.747Z,8.20
2022-12-25T21:15:24.821Z,8.30
2022-12-25T21:17:56.066Z,8.30
2022-12-25T21:20:24.896Z,8.30
2022-12-25T21:22:53.874Z,8.30
2022-12-25T21:25:22.535Z,8.30
2022-12-25T21:27:52.584Z,8.30
2022-12-25T21:30:21.290Z,8.30
2022-12-25T21:33:07.148Z,8.30
2022-12-25T21:35:37.901Z,8.30
2022-12-25T21:38:06.888Z,8.30
2022-12-25T21:40:36.984Z,8.30
2022-12-25T21:43:07.517Z,8.30
2022-12-25T21:45:36.179Z,8.30
2022-12-25T21:48:05.186Z,8.30
2022-12-25T21:50:52.126Z,8.30
2022-12-25T21:53:21.758Z,8.30
2022-12-25T21:56:00.730Z,8.40
2022-12-25T21:58:31.127Z,8.40
2022-12-25T22:01:03.586Z,8.50
2022-12-25T22:03:32.248Z,8.50
2022-12-25T22:06:21.595Z,8.60
2022-12-25T22:08:50.791Z,8.60
2022-12-25T22:11:37.018Z,8.60
2022-12-25T22:14:50.168Z,8.60
2022-12-25T22:17:31.453Z,8.70
2022-12-25T22:20:00.319Z,8.70
2022-12-25T22:22:30.534Z,8.70
2022-12-25T22:25:00.812Z,8.70
2022-12-25T22:27:33.383Z,8.70
2022-12-25T22:30:04.055Z,8.70
2022-12-25T22:32:32.683Z,8.80
2022-12-25T22:35:01.915Z,8.80
2022-12-25T22:37:30.713Z,8.80
2022-12-25T22:40:01.371Z,8.80
2022-12-25T22:42:30.350Z,8.80
2022-12-25T22:44:59.329Z,8.80
2022-12-25T22:47:29.384Z,8.80
2022-12-25T22:49:58.081Z,8.80
2022-12-25T22:52:27.261Z,8.80
2022-12-25T22:54:56.132Z,8.90
2022-12-25T22:57:27.441Z,8.80
2022-12-25T22:59:56.249Z,8.80
2022-12-25T23:02:25.243Z,8.80
2022-12-25T23:04:55.599Z,8.80
2022-12-25T23:07:24.554Z,8.90
2022-12-25T23:09:53.126Z,8.90
2022-12-25T23:12:39.344Z,8.80
2022-12-25T23:15:09.071Z,8.80
2022-12-25T23:17:55.115Z,8.80
2022-12-25T23:20:42.479Z,8.80
2022-12-25T23:23:32.763Z,8.80
2022-12-25T23:26:10.540Z,8.80
2022-12-25T23:28:58.042Z,8.80
2022-12-25T23:31:30.180Z,8.80
2022-12-25T23:33:59.458Z,8.90
2022-12-25T23:36:29.802Z,8.90
2022-12-25T23:39:04.695Z,8.90
2022-12-25T23:41:35.877Z,8.90
2022-12-25T23:44:04.637Z,8.90
2022-12-25T23:46:33.437Z,8.90
2022-12-25T23:49:02.045Z,8.90
2022-12-25T23:51:32.171Z,8.90
2022-12-25T23:54:00.831Z,9.00
2022-12-25T23:56:29.604Z,9.00
2022-12-25T23:58:58.719Z,9.00
